Time;durP1;ratioP1;P1;durP2;ratioP2;P2;SDS_P1;SDS_P2;PMS_P1;PMS_P2;Temp;Humidity;BMP_temperature;BMP_pressure;BME280_temperature;BME280_humidity;BME280_pressure;Samples;Min_cycle;Max_cycle;Signal;HPM_P1;HPM_P2
2022/05/05 00:02:11;;;;;;;23.87;18.80;;;;;;;13.53;100.00;99221.75;5073836;28;20211;-78
2022/05/05 00:04:44;;;;;;;26.10;20.27;;;;;;;13.36;100.00;99233.66;5070032;28;20338;-80
2022/05/05 00:07:12;;;;;;;25.03;19.70;;;;;;;13.04;100.00;99231.53;5066426;28;20188;-79
2022/05/05 00:09:42;;;;;;;26.43;21.03;;;;;;;13.11;100.00;99229.25;5068294;28;20192;-78
2022/05/05 00:15:01;;;;;;;26.47;20.37;;;;;;;13.29;100.00;99240.38;5073502;28;20197;-79
2022/05/05 00:17:32;;;;;;;23.07;20.10;;;;;;;13.32;100.00;99234.84;5068274;28;20279;-79
2022/05/05 00:20:07;;;;;;;23.80;20.43;;;;;;;13.40;100.00;99240.44;5069775;28;20685;-79
2022/05/05 00:22:36;;;;;;;27.60;19.63;;;;;;;13.57;100.00;99236.53;5092897;28;20226;-79
2022/05/05 00:25:05;;;;;;;24.50;20.00;;;;;;;13.39;100.00;99236.91;5089466;28;20211;-79
2022/05/05 00:27:34;;;;;;;25.83;19.33;;;;;;;13.39;100.00;99239.59;5093007;28;20207;-78
2022/05/05 00:30:04;;;;;;;24.17;20.60;;;;;;;13.29;100.00;99240.38;5093918;28;20651;-79
2022/05/05 00:32:38;;;;;;;24.33;20.37;;;;;;;13.17;100.00;99234.13;5094372;28;20195;-78
2022/05/05 00:35:15;;;;;;;24.10;19.53;;;;;;;13.18;100.00;99242.00;5068645;28;20200;-79
2022/05/05 00:37:45;;;;;;;27.43;21.27;;;;;;;13.10;100.00;99246.16;5037350;28;20211;-79
2022/05/05 00:40:17;;;;;;;26.30;20.90;;;;;;;13.07;100.00;99241.94;5071002;28;20290;-78
2022/05/05 00:42:46;;;;;;;28.30;21.20;;;;;;;13.09;100.00;99240.00;5068449;28;20287;-78
2022/05/05 00:45:14;;;;;;;25.27;20.60;;;;;;;13.14;100.00;99242.34;5036329;28;20220;-78
2022/05/05 00:47:50;;;;;;;33.10;22.00;;;;;;;13.33;100.00;99241.88;5067266;28;20196;-79
2022/05/05 00:50:21;;;;;;;27.50;22.13;;;;;;;13.35;100.00;99238.13;5068807;28;20211;-79
2022/05/05 00:52:50;;;;;;;27.93;21.47;;;;;;;13.55;100.00;99238.44;5071177;28;20283;-78
2022/05/05 00:55:19;;;;;;;25.70;20.77;;;;;;;13.66;100.00;99239.34;5070113;28;20199;-79
2022/05/05 00:57:48;;;;;;;26.23;20.80;;;;;;;13.63;100.00;99238.72;5067674;28;20295;-79
2022/05/05 01:00:17;;;;;;;24.10;20.53;;;;;;;13.52;100.00;99230.72;5070084;28;20215;-79
2022/05/05 01:02:47;;;;;;;26.30;20.30;;;;;;;13.56;100.00;99233.00;5059444;28;20192;-79
2022/05/05 01:05:17;;;;;;;25.63;20.20;;;;;;;13.61;100.00;99227.34;5073294;28;20230;-78
2022/05/05 01:07:48;;;;;;;24.97;19.43;;;;;;;13.56;100.00;99230.34;5092199;28;20200;-79
2022/05/05 01:10:17;;;;;;;23.97;19.23;;;;;;;13.57;100.00;99226.72;5090874;28;20270;-79
2022/05/05 01:12:47;;;;;;;24.77;18.73;;;;;;;13.59;100.00;99227.44;5091775;28;20282;-79
2022/05/05 01:15:15;;;;;;;24.90;17.60;;;;;;;13.39;100.00;99223.63;5090582;28;20200;-78
2022/05/05 01:17:44;;;;;;;18.97;15.60;;;;;;;13.41;100.00;99218.19;5086336;28;20200;-79
2022/05/05 01:20:14;;;;;;;18.43;14.30;;;;;;;13.36;100.00;99209.72;5086452;28;20192;-78
2022/05/05 01:22:50;;;;;;;18.93;13.93;;;;;;;13.01;100.00;99221.09;5093115;28;20306;-78
2022/05/05 01:28:15;;;;;;;16.60;13.20;;;;;;;13.05;100.00;99219.94;5051877;28;20248;-78
2022/05/05 01:30:45;;;;;;;17.13;13.37;;;;;;;13.00;100.00;99215.88;5046890;28;20205;-78
2022/05/05 01:33:19;;;;;;;20.30;13.83;;;;;;;13.14;100.00;99213.09;5048247;28;20276;-78
2022/05/05 01:35:56;;;;;;;20.73;14.30;;;;;;;13.17;100.00;99218.16;5001559;28;20199;-78
2022/05/05 01:38:36;;;;;;;19.07;13.70;;;;;;;12.95;100.00;99213.59;4934259;29;20213;-78
2022/05/05 01:41:07;;;;;;;20.73;14.27;;;;;;;12.67;100.00;99217.38;4931898;29;20197;-78
2022/05/05 01:43:36;;;;;;;18.80;13.77;;;;;;;12.87;100.00;99219.44;4916491;28;20286;-78
2022/05/05 01:46:04;;;;;;;20.03;13.70;;;;;;;13.03;100.00;99229.84;4959691;28;20237;-78
2022/05/05 01:48:34;;;;;;;18.27;13.67;;;;;;;13.21;100.00;99238.28;4992383;28;20195;-79
2022/05/05 01:51:08;;;;;;;18.80;14.00;;;;;;;13.21;100.00;99242.75;4992116;28;20199;-78
2022/05/05 01:53:39;;;;;;;15.33;12.50;;;;;;;13.20;100.00;99227.75;4986891;28;20213;-79
2022/05/05 01:56:15;;;;;;;17.40;13.20;;;;;;;13.17;100.00;99234.97;5001086;28;20216;-79
2022/05/05 01:58:44;;;;;;;14.47;12.30;;;;;;;13.35;100.00;99232.81;5030179;28;20209;-78
2022/05/05 02:01:14;;;;;;;17.60;12.70;;;;;;;13.24;100.00;99235.41;5030242;28;20201;-78
2022/05/05 02:03:43;;;;;;;15.80;11.90;;;;;;;13.10;100.00;99231.06;5027299;28;20198;-79
2022/05/05 02:06:13;;;;;;;17.57;12.53;;;;;;;13.16;100.00;99219.13;5026294;28;20227;-78
2022/05/05 02:08:43;;;;;;;17.20;12.90;;;;;;;13.18;100.00;99223.38;4979119;28;20289;-79
2022/05/05 02:11:13;;;;;;;15.47;12.40;;;;;;;13.22;100.00;99218.72;5031254;28;20209;-78
2022/05/05 02:13:42;;;;;;;16.80;12.50;;;;;;;13.41;100.00;99215.53;5027238;28;20201;-78
2022/05/05 02:16:10;;;;;;;16.77;11.90;;;;;;;13.39;100.00;99215.63;5021224;28;20215;-78
2022/05/05 02:18:40;;;;;;;13.90;11.27;;;;;;;13.35;100.00;99218.66;5091059;28;20203;-79
2022/05/05 02:21:14;;;;;;;16.60;11.50;;;;;;;13.31;100.00;99227.81;5025844;28;20194;-78
2022/05/05 02:23:47;;;;;;;13.27;11.57;;;;;;;12.99;100.00;99228.34;5025498;28;20236;-78
2022/05/05 02:26:16;;;;;;;16.53;11.10;;;;;;;13.04;100.00;99228.03;5031039;28;20217;-78
2022/05/05 02:28:46;;;;;;;16.10;10.73;;;;;;;13.08;100.00;99227.66;5023980;28;20200;-78
2022/05/05 02:31:14;;;;;;;17.33;10.47;;;;;;;13.05;100.00;99233.22;5031111;28;20190;-78
2022/05/05 02:33:47;;;;;;;13.43;9.87;;;;;;;12.98;100.00;99226.63;5032136;28;20637;-78
2022/05/05 02:39:06;;;;;;;12.97;9.17;;;;;;;12.79;100.00;99218.31;5039997;28;20249;-78
2022/05/05 02:41:39;;;;;;;12.47;8.73;;;;;;;12.89;100.00;99217.53;5091797;28;20240;-78
2022/05/05 02:44:08;;;;;;;12.53;8.97;;;;;;;12.93;100.00;99220.78;5093046;28;20207;-78
2022/05/05 02:46:37;;;;;;;13.40;9.67;;;;;;;13.02;100.00;99229.91;5090803;28;20215;-78
2022/05/05 02:49:06;;;;;;;13.17;8.97;;;;;;;12.97;100.00;99224.94;5055239;28;20196;-79
2022/05/05 02:51:35;;;;;;;13.73;8.77;;;;;;;12.92;100.00;99227.06;5057009;28;20247;-78
2022/05/05 02:56:53;;;;;;;14.67;9.07;;;;;;;12.95;100.00;99234.84;5093245;28;20194;-78
2022/05/05 02:59:25;;;;;;;14.93;9.23;;;;;;;13.02;100.00;99232.56;5092782;28;20202;-78
2022/05/05 03:01:54;;;;;;;12.30;8.67;;;;;;;12.91;100.00;99228.03;4997686;28;20204;-78
2022/05/05 03:04:24;;;;;;;11.63;9.00;;;;;;;13.01;100.00;99222.91;5021304;28;20208;-78
2022/05/05 03:06:53;;;;;;;15.57;8.73;;;;;;;12.97;100.00;99219.63;4987416;28;20229;-78
2022/05/05 03:09:22;;;;;;;12.93;7.97;;;;;;;13.11;100.00;99224.78;4982320;28;20239;-78
2022/05/05 03:11:52;;;;;;;14.60;8.43;;;;;;;13.15;100.00;99226.25;4986258;28;20195;-78
2022/05/05 03:14:21;;;;;;;14.70;7.90;;;;;;;12.90;100.00;99219.22;4979159;28;20192;-78
2022/05/05 03:16:50;;;;;;;14.20;8.43;;;;;;;12.82;100.00;99212.75;4994783;28;20325;-78
2022/05/05 03:19:19;;;;;;;13.20;8.33;;;;;;;12.91;100.00;99222.72;4984958;28;20286;-78
2022/05/05 03:21:48;;;;;;;17.20;8.17;;;;;;;12.91;100.00;99225.38;4985328;28;20209;-78
2022/05/05 03:24:17;;;;;;;13.57;7.87;;;;;;;12.99;100.00;99224.84;4991419;28;20187;-78
2022/05/05 03:26:45;;;;;;;13.17;8.00;;;;;;;12.91;100.00;99225.38;4991078;28;20227;-78
2022/05/05 03:29:15;;;;;;;12.93;8.57;;;;;;;12.83;100.00;99227.75;4995517;28;20534;-78
2022/05/05 03:31:44;;;;;;;15.30;8.17;;;;;;;12.83;100.00;99227.75;4998249;28;20263;-78
2022/05/05 03:34:17;;;;;;;12.87;8.00;;;;;;;12.75;100.00;99228.31;5035416;28;20198;-78
2022/05/05 03:36:46;;;;;;;13.87;7.53;;;;;;;12.75;100.00;99220.34;5024368;28;20194;-79
2022/05/05 03:39:14;;;;;;;17.47;8.23;;;;;;;12.80;100.00;99223.50;5092740;28;20199;-79
2022/05/05 03:41:43;;;;;;;12.50;8.50;;;;;;;12.94;100.00;99225.19;5094137;28;20200;-79
2022/05/05 03:44:12;;;;;;;12.73;7.67;;;;;;;12.73;100.00;99230.22;5088725;28;20615;-79
2022/05/05 03:46:43;;;;;;;13.27;8.10;;;;;;;12.67;100.00;99237.78;5091621;28;20279;-79
2022/05/05 03:49:13;;;;;;;13.80;7.60;;;;;;;12.85;100.00;99239.13;5092294;28;20209;-78
2022/05/05 03:51:41;;;;;;;11.60;7.23;;;;;;;12.96;100.00;99241.88;5069844;28;20188;-79
2022/05/05 03:54:09;;;;;;;11.93;7.73;;;;;;;13.01;100.00;99241.50;5067308;28;20204;-78
2022/05/05 03:56:38;;;;;;;10.67;7.53;;;;;;;13.03;100.00;99244.94;5064019;28;20227;-78
2022/05/05 03:59:07;;;;;;;9.73;7.40;;;;;;;12.90;100.00;99250.28;5073666;28;20750;-78
2022/05/05 04:01:38;;;;;;;10.97;7.77;;;;;;;13.00;100.00;99251.31;5070893;28;20205;-78
2022/05/05 04:04:08;;;;;;;11.90;7.43;;;;;;;13.03;100.00;99253.75;5035803;28;20196;-78
2022/05/05 04:06:37;;;;;;;12.90;8.03;;;;;;;12.95;100.00;99256.13;5066240;28;20199;-79
2022/05/05 04:09:05;;;;;;;14.23;7.90;;;;;;;12.99;100.00;99262.06;5068452;28;20667;-78
2022/05/05 04:11:34;;;;;;;12.47;8.03;;;;;;;13.20;100.00;99254.34;5070218;28;20208;-78
2022/05/05 04:14:04;;;;;;;13.70;7.97;;;;;;;13.07;100.00;99255.22;5064666;28;20196;-79
2022/05/05 04:16:33;;;;;;;10.93;7.40;;;;;;;13.09;100.00;99257.78;5073285;28;20199;-78
2022/05/05 04:19:03;;;;;;;12.07;7.50;;;;;;;12.90;100.00;99256.44;5089447;28;20207;-79
2022/05/05 04:21:35;;;;;;;12.17;7.83;;;;;;;12.81;100.00;99264.22;5037999;28;20203;-79
2022/05/05 04:24:05;;;;;;;14.97;7.30;;;;;;;12.78;100.00;99273.28;5108000;28;20202;-78
2022/05/05 04:26:37;;;;;;;10.87;7.43;;;;;;;13.06;100.00;99285.44;5049863;28;20200;-79
2022/05/05 04:29:05;;;;;;;12.23;7.73;;;;;;;13.22;100.00;99289.66;5045897;28;20224;-77
2022/05/05 04:31:37;;;;;;;11.60;8.13;;;;;;;13.31;100.00;99294.31;4994152;28;20191;-79
2022/05/05 04:34:06;;;;;;;9.57;7.63;;;;;;;13.22;100.00;99297.66;4932224;29;20201;-79
2022/05/05 04:36:37;;;;;;;9.77;7.23;;;;;;;13.06;100.00;99298.75;4928327;29;20213;-79
2022/05/05 04:39:06;;;;;;;12.53;7.30;;;;;;;13.07;100.00;99296.94;4913078;29;20208;-79
2022/05/05 04:41:41;;;;;;;11.70;7.80;;;;;;;13.06;100.00;99293.41;4916669;29;20213;-79
2022/05/05 04:44:10;;;;;;;13.33;8.00;;;;;;;12.81;100.00;99286.34;4913246;29;20363;-79
2022/05/05 04:46:38;;;;;;;12.00;8.30;;;;;;;12.90;100.00;99291.00;4916652;29;20253;-79
2022/05/05 04:49:08;;;;;;;15.67;8.10;;;;;;;13.04;100.00;99289.19;4913501;29;20217;-79
2022/05/05 04:51:38;;;;;;;12.07;8.47;;;;;;;13.02;100.00;99291.91;4949710;28;20201;-79
2022/05/05 04:54:07;;;;;;;10.23;7.63;;;;;;;12.83;100.00;99284.41;5026604;28;20186;-79
2022/05/05 04:56:35;;;;;;;13.20;8.43;;;;;;;12.75;100.00;99291.25;5030355;28;20332;-79
2022/05/05 04:59:04;;;;;;;14.37;7.83;;;;;;;12.84;100.00;99291.47;5087587;28;20200;-79
2022/05/05 05:01:32;;;;;;;13.50;8.50;;;;;;;12.72;100.00;99299.44;5093200;28;20660;-79
2022/05/05 05:04:02;;;;;;;15.13;8.67;;;;;;;12.87;100.00;99309.84;5086908;28;20215;-78
2022/05/05 05:06:30;;;;;;;11.63;8.53;;;;;;;12.79;100.00;99306.00;5090885;28;20223;-78
2022/05/05 05:09:01;;;;;;;10.57;7.63;;;;;;;13.00;100.00;99309.81;5094092;28;20315;-78
2022/05/05 05:11:31;;;;;;;15.23;8.53;;;;;;;12.67;100.00;99315.72;5094349;28;20202;-78
2022/05/05 05:14:03;;;;;;;12.27;8.30;;;;;;;12.41;100.00;99317.50;5088350;28;20215;-78
2022/05/05 05:16:31;;;;;;;11.80;8.13;;;;;;;12.29;100.00;99321.03;5091606;28;20194;-78
2022/05/05 05:19:10;;;;;;;14.03;8.87;;;;;;;12.40;100.00;99330.91;5091035;28;20195;-78
2022/05/05 05:21:44;;;;;;;11.60;8.57;;;;;;;12.45;100.00;99320.78;5092260;28;20199;-77
2022/05/05 05:24:17;;;;;;;11.63;8.20;;;;;;;12.48;100.00;99333.88;5094243;28;20195;-78
2022/05/05 05:26:47;;;;;;;14.77;8.90;;;;;;;12.37;100.00;99339.94;5094507;28;20226;-78
2022/05/05 05:29:18;;;;;;;12.17;8.10;;;;;;;12.67;100.00;99329.00;5091301;28;20275;-78
2022/05/05 05:31:50;;;;;;;10.77;8.67;;;;;;;12.81;100.00;99346.63;5091834;28;20195;-81
2022/05/05 05:34:19;;;;;;;14.33;8.97;;;;;;;12.83;100.00;99345.56;5089234;28;20184;-78
2022/05/05 05:36:49;;;;;;;11.47;8.30;;;;;;;12.87;100.00;99343.53;5085532;28;20196;-78
2022/05/05 05:39:23;;;;;;;10.03;8.00;;;;;;;12.96;100.00;99347.38;5090932;28;20195;-78
2022/05/05 05:41:53;;;;;;;15.80;7.90;;;;;;;12.63;100.00;99359.38;5084122;28;20195;-79
2022/05/05 05:44:21;;;;;;;15.27;8.30;;;;;;;12.59;100.00;99361.41;5008893;28;20221;-78
2022/05/05 05:46:50;;;;;;;15.57;8.50;;;;;;;12.77;100.00;99358.44;5007219;28;20205;-78
2022/05/05 05:49:18;;;;;;;13.83;8.30;;;;;;;12.82;100.00;99364.28;5004564;28;20228;-79
2022/05/05 05:51:47;;;;;;;11.63;8.00;;;;;;;12.75;100.00;99360.38;4989298;28;20252;-79
2022/05/05 05:54:18;;;;;;;12.77;8.27;;;;;;;13.03;100.00;99365.44;4955951;28;20195;-79
2022/05/05 05:56:49;;;;;;;14.43;8.40;;;;;;;13.16;100.00;99365.41;4990809;28;20222;-79
2022/05/05 05:59:18;;;;;;;11.13;7.97;;;;;;;13.29;100.00;99370.72;4954422;28;20205;-79
2022/05/05 06:04:37;;;;;;;9.47;7.70;;;;;;;13.57;100.00;99374.91;4992209;28;20206;-79
2022/05/05 06:07:08;;;;;;;12.47;7.87;;;;;;;13.61;100.00;99374.59;4991140;28;20198;-79
2022/05/05 06:09:38;;;;;;;11.97;7.87;;;;;;;13.29;100.00;99378.72;5001084;28;20249;-79
2022/05/05 06:12:10;;;;;;;13.53;7.53;;;;;;;13.28;100.00;99375.19;5026942;28;20350;-79
2022/05/05 06:14:40;;;;;;;12.47;8.13;;;;;;;13.18;100.00;99376.78;5027728;28;20334;-80
2022/05/05 06:17:09;;;;;;;14.37;8.50;;;;;;;12.99;100.00;99379.91;5031614;28;20189;-80
2022/05/05 06:19:38;;;;;;;13.80;8.53;;;;;;;13.11;100.00;99384.34;5028980;28;20229;-79
2022/05/05 06:22:08;;;;;;;11.37;7.90;;;;;;;13.41;100.00;99391.13;4937248;28;20224;-78
2022/05/05 06:24:36;;;;;;;13.33;8.23;;;;;;;13.46;100.00;99386.34;4968766;28;20211;-79
2022/05/05 06:27:09;;;;;;;12.40;7.93;;;;;;;13.53;100.00;99390.25;4893568;29;20308;-81
2022/05/05 06:29:39;;;;;;;12.53;8.10;;;;;;;13.59;100.00;99388.94;4901809;28;20228;-79
2022/05/05 06:32:08;;;;;;;9.70;7.93;;;;;;;13.67;100.00;99398.06;4972572;28;20686;-79
2022/05/05 06:34:40;;;;;;;18.43;8.87;;;;;;;13.53;100.00;99392.91;4894474;29;20205;-79
2022/05/05 06:37:09;;;;;;;13.37;8.80;;;;;;;13.60;100.00;99393.31;4894584;29;20282;-79
2022/05/05 06:39:37;;;;;;;17.30;8.63;;;;;;;13.53;100.00;99400.06;4902627;29;20219;-79
2022/05/05 06:42:10;;;;;;;14.27;8.33;;;;;;;13.80;100.00;99400.72;4948467;28;20656;-80
2022/05/05 06:44:39;;;;;;;14.23;9.00;;;;;;;13.90;100.00;99403.56;4958044;28;20307;-79
2022/05/05 06:47:10;;;;;;;15.20;8.70;;;;;;;13.82;100.00;99404.09;5025649;28;20233;-79
2022/05/05 06:49:38;;;;;;;14.50;8.77;;;;;;;13.86;100.00;99404.72;5025453;28;20463;-79
2022/05/05 06:52:08;;;;;;;13.70;8.50;;;;;;;13.79;100.00;99406.13;5031144;28;20198;-80
2022/05/05 06:54:58;;;;;;;14.73;8.40;;;;;;;13.89;100.00;99407.16;5035310;28;20209;-80
2022/05/05 06:57:29;;;;;;;13.47;8.47;;;;;;;13.94;100.00;99413.84;5034466;28;20205;-79
2022/05/05 06:59:59;;;;;;;16.13;9.00;;;;;;;13.91;100.00;99416.75;5076637;28;20345;-79
2022/05/05 07:02:28;;;;;;;13.17;8.67;;;;;;;14.05;100.00;99418.38;5069572;28;20199;-79
2022/05/05 07:07:42;;;;;;;13.37;8.33;;;;;;;14.23;100.00;99413.50;5073261;28;20196;-82
2022/05/05 07:13:04;;;;;;;19.20;9.10;;;;;;;14.30;100.00;99418.25;5047713;28;20694;-80
2022/05/05 07:15:35;;;;;;;13.73;8.70;;;;;;;14.52;100.00;99416.66;5009863;28;20201;-79
2022/05/05 07:18:04;;;;;;;16.93;10.27;;;;;;;14.23;100.00;99422.34;4956086;28;20216;-79
2022/05/05 07:20:33;;;;;;;15.80;8.83;;;;;;;14.48;100.00;99421.38;4969091;28;20199;-80
2022/05/05 07:23:01;;;;;;;15.57;8.97;;;;;;;14.70;100.00;99425.94;4987693;28;20235;-80
2022/05/05 07:25:33;;;;;;;15.43;9.33;;;;;;;14.72;100.00;99431.97;4991032;28;20191;-80
2022/05/05 07:28:12;;;;;;;16.87;9.20;;;;;;;14.79;100.00;99429.72;4988733;28;20222;-79
2022/05/05 07:30:44;;;;;;;13.67;8.93;;;;;;;14.99;100.00;99431.69;4988123;28;20219;-79
2022/05/05 07:33:13;;;;;;;16.17;9.57;;;;;;;14.99;100.00;99430.81;4991841;28;20206;-79
2022/05/05 07:35:44;;;;;;;16.67;9.20;;;;;;;14.92;100.00;99433.13;4990646;28;20207;-79
2022/05/05 07:38:13;;;;;;;19.00;9.90;;;;;;;14.82;100.00;99429.47;4991145;28;20203;-79
2022/05/05 07:40:47;;;;;;;15.50;9.93;;;;;;;14.95;100.00;99437.34;5021588;28;20201;-79
2022/05/05 07:43:17;;;;;;;15.47;9.67;;;;;;;15.24;100.00;99435.06;5074323;28;20291;-80
2022/05/05 07:45:48;;;;;;;15.47;9.83;;;;;;;15.52;100.00;99439.91;5090975;28;20188;-79
2022/05/05 07:48:19;;;;;;;15.67;9.53;;;;;;;15.55;100.00;99441.53;5090497;28;20294;-79
2022/05/05 07:50:49;;;;;;;18.13;10.13;;;;;;;15.82;100.00;99450.00;5086361;28;20219;-79
2022/05/05 07:53:18;;;;;;;13.93;9.27;;;;;;;15.78;100.00;99442.38;5081435;28;20214;-79
2022/05/05 07:55:47;;;;;;;16.97;10.47;;;;;;;15.77;100.00;99440.66;5104825;28;20198;-79
2022/05/05 07:58:17;;;;;;;16.50;9.67;;;;;;;15.62;100.00;99440.06;5111562;28;20187;-79
2022/05/05 08:00:45;;;;;;;12.93;9.50;;;;;;;16.03;100.00;99442.94;5109293;28;20211;-80
2022/05/05 08:03:15;;;;;;;15.00;9.60;;;;;;;15.93;100.00;99441.97;5104360;28;20202;-80
2022/05/05 08:05:44;;;;;;;14.17;9.43;;;;;;;16.22;100.00;99446.75;5107030;28;20202;-80
2022/05/05 08:08:13;;;;;;;13.03;9.30;;;;;;;16.10;100.00;99442.41;5107189;28;20260;-80
2022/05/05 08:10:43;;;;;;;17.23;10.03;;;;;;;16.44;100.00;99452.00;5105012;28;20254;-80
2022/05/05 08:13:13;;;;;;;18.17;9.70;;;;;;;16.28;100.00;99449.75;5092058;28;20196;-79
2022/05/05 08:15:41;;;;;;;15.40;9.47;;;;;;;16.16;100.00;99444.56;5025633;28;20389;-81
2022/05/05 08:18:13;;;;;;;15.97;9.87;;;;;;;16.40;100.00;99445.19;5031758;28;20281;-80
2022/05/05 08:20:44;;;;;;;14.87;9.53;;;;;;;16.50;100.00;99445.28;5025418;28;20205;-80
2022/05/05 08:23:14;;;;;;;15.73;10.70;;;;;;;16.37;100.00;99461.50;5032591;28;20233;-80
2022/05/05 08:28:36;;;;;;;16.17;9.77;;;;;;;16.46;100.00;99455.41;5033091;28;20193;-80
2022/05/05 08:31:07;;;;;;;14.20;9.90;;;;;;;16.57;100.00;99462.50;5032749;28;20268;-80
2022/05/05 08:33:38;;;;;;;16.07;10.57;;;;;;;16.38;100.00;99460.53;5026572;28;20197;-80
2022/05/05 08:36:09;;;;;;;15.80;9.40;;;;;;;16.36;100.00;99462.50;5034490;28;20197;-79
2022/05/05 08:38:38;;;;;;;15.20;9.37;;;;;;;16.34;100.00;99459.09;5000204;28;20208;-80
2022/05/05 08:41:12;;;;;;;15.13;9.20;;;;;;;16.28;100.00;99467.63;5033259;28;20201;-80
2022/05/05 08:43:43;;;;;;;13.47;9.03;;;;;;;16.78;100.00;99465.22;5033086;28;20272;-80
2022/05/05 08:46:34;;;;;;;14.10;9.27;;;;;;;16.93;100.00;99466.63;5054719;28;20227;-79
2022/05/05 08:49:06;;;;;;;16.77;9.80;;;;;;;16.81;100.00;99476.53;4923074;29;20193;-80
2022/05/05 08:51:42;;;;;;;15.00;9.97;;;;;;;16.83;100.00;99473.72;4948512;29;20710;-80
2022/05/05 08:54:16;;;;;;;17.83;9.50;;;;;;;16.71;100.00;99485.47;4938579;29;20683;-79
2022/05/05 08:56:48;;;;;;;15.10;9.10;;;;;;;17.00;100.00;99483.00;4947075;29;20253;-79
2022/05/05 08:59:18;;;;;;;14.60;9.37;;;;;;;17.06;100.00;99485.16;4953360;29;20211;-81
2022/05/05 09:01:55;;;;;;;13.97;8.60;;;;;;;17.31;100.00;99487.41;4935852;28;20295;-82
2022/05/05 09:04:26;;;;;;;11.03;8.40;;;;;;;17.22;100.00;99490.03;4930809;29;20799;-81
2022/05/05 09:06:57;;;;;;;13.23;7.67;;;;;;;17.21;100.00;99488.34;4946686;28;20199;-81
2022/05/05 09:09:31;;;;;;;16.93;8.00;;;;;;;17.42;100.00;99481.13;4987783;28;20199;-81
2022/05/05 09:12:12;;;;;;;14.93;8.00;;;;;;;17.59;100.00;99485.88;4954353;29;20197;-82
2022/05/05 09:14:43;;;;;;;12.93;8.30;;;;;;;17.42;100.00;99484.66;4951719;28;20267;-81
2022/05/05 09:17:14;;;;;;;11.13;7.73;;;;;;;17.78;100.00;99486.94;4952313;29;20214;-81
2022/05/05 09:19:45;;;;;;;14.10;7.20;;;;;;;17.86;100.00;99479.94;4992243;28;20227;-82
2022/05/05 09:22:18;;;;;;;12.23;7.33;;;;;;;17.71;100.00;99479.44;5068082;28;20287;-80
2022/05/05 09:24:51;;;;;;;18.13;7.93;;;;;;;18.22;100.00;99482.94;5071957;28;20203;-81
2022/05/05 09:27:31;;;;;;;14.47;7.67;;;;;;;18.18;100.00;99484.22;5066881;28;20192;-82
2022/05/05 09:30:07;;;;;;;13.43;6.33;;;;;;;18.17;100.00;99483.38;5067753;28;20243;-82
2022/05/05 09:32:42;;;;;;;12.53;6.90;;;;;;;18.63;100.00;99497.13;5093454;28;20199;-81
2022/05/05 09:35:12;;;;;;;11.17;6.47;;;;;;;18.51;98.70;99496.41;5095233;27;20208;-82
2022/05/05 09:37:49;;;;;;;13.17;7.30;;;;;;;18.99;99.27;99490.19;5094113;28;20191;-81
2022/05/05 09:40:20;;;;;;;15.53;6.90;;;;;;;18.90;98.79;99494.59;5091586;28;20203;-81
2022/05/05 09:42:49;;;;;;;14.63;6.40;;;;;;;18.94;95.42;99493.31;5088784;28;20275;-81
2022/05/05 09:45:23;;;;;;;12.13;6.13;;;;;;;18.88;92.42;99497.41;5093894;28;20199;-82
2022/05/05 09:47:54;;;;;;;11.83;6.70;;;;;;;18.88;97.86;99492.06;5093515;28;20198;-82
2022/05/05 09:50:25;;;;;;;12.87;7.13;;;;;;;18.85;100.00;99496.88;5085529;28;20685;-82
2022/05/05 09:58:37;;;;;;;10.17;6.17;;;;;;;19.24;100.00;99486.91;4992321;28;20666;-82
2022/05/05 10:01:21;;;;;;;9.93;6.00;;;;;;;19.78;89.12;99498.75;4951744;29;20203;-82
2022/05/05 10:04:03;;;;;;;11.43;6.10;;;;;;;19.43;89.33;99494.91;4951998;29;20204;-81
2022/05/05 10:06:35;;;;;;;10.57;6.23;;;;;;;19.54;88.04;99496.56;4929412;29;20224;-80
2022/05/05 10:09:09;;;;;;;9.30;5.83;;;;;;;19.78;91.03;99495.22;4931020;29;20720;-80
2022/05/05 10:11:37;;;;;;;10.60;6.23;;;;;;;20.08;87.91;99500.31;4956998;28;20229;-81
2022/05/05 10:14:08;;;;;;;9.33;6.80;;;;;;;19.56;82.45;99499.13;4913621;29;20212;-80
2022/05/05 10:16:38;;;;;;;12.73;6.60;;;;;;;19.35;86.45;99496.63;4875914;29;20222;-80
2022/05/05 10:19:06;;;;;;;8.63;5.47;;;;;;;19.05;76.64;99498.53;4874825;29;20199;-80
2022/05/05 10:21:46;;;;;;;7.80;5.50;;;;;;;19.51;77.51;99496.03;4871476;29;20195;-80
2022/05/05 10:24:23;;;;;;;13.70;6.63;;;;;;;19.53;85.75;99494.03;4902794;29;20226;-83
2022/05/05 10:26:54;;;;;;;8.07;5.40;;;;;;;19.93;81.24;99493.75;4894798;29;20286;-80
2022/05/05 10:29:40;;;;;;;10.13;5.17;;;;;;;19.68;80.90;99489.88;4892580;29;20588;-80
2022/05/05 10:32:11;;;;;;;8.87;5.20;;;;;;;19.32;79.71;99492.41;4954526;28;20412;-80
2022/05/05 10:34:45;;;;;;;9.20;4.60;;;;;;;19.36;79.01;99492.94;5024654;28;20209;-80
2022/05/05 10:37:14;;;;;;;8.47;5.00;;;;;;;19.42;74.89;99490.53;5024258;28;20276;-79
2022/05/05 10:40:02;;;;;;;8.43;4.33;;;;;;;19.20;70.80;99482.81;5030842;28;20201;-80
2022/05/05 10:42:52;;;;;;;7.90;4.93;;;;;;;19.23;74.30;99490.59;5047092;28;20204;-80
2022/05/05 10:45:32;;;;;;;8.03;4.77;;;;;;;19.53;78.13;99492.19;5045570;28;20212;-80
2022/05/05 10:48:13;;;;;;;6.67;4.47;;;;;;;19.62;79.80;99482.44;4952718;28;20200;-81
2022/05/05 10:50:50;;;;;;;6.33;4.50;;;;;;;19.79;74.91;99487.03;4887509;29;20309;-80
2022/05/05 10:53:34;;;;;;;8.77;4.63;;;;;;;19.60;65.90;99487.13;4895584;29;20689;-81
2022/05/05 10:56:26;;;;;;;8.67;3.97;;;;;;;19.63;65.60;99484.97;4893504;29;20693;-81
2022/05/05 10:59:06;;;;;;;5.80;4.07;;;;;;;19.84;65.66;99481.19;4840402;29;20387;-80
2022/05/05 11:02:02;;;;;;;5.80;3.93;;;;;;;20.15;63.30;99484.41;4842820;29;20203;-81
2022/05/05 11:04:33;;;;;;;8.27;4.20;;;;;;;20.36;62.41;99479.59;4833320;29;20284;-81
2022/05/05 11:07:30;;;;;;;9.37;5.67;;;;;;;19.99;72.73;99477.88;4924240;28;20215;-80
2022/05/05 11:10:00;;;;;;;9.80;5.63;;;;;;;19.98;77.53;99475.34;4914456;29;20281;-82
2022/05/05 11:12:38;;;;;;;6.97;4.43;;;;;;;19.80;73.87;99475.28;4916665;29;20225;-81
2022/05/05 11:23:41;;;;;;;12.57;5.97;;;;;;;19.41;78.12;99478.09;5020249;28;20228;-81
2022/05/05 11:26:10;;;;;;;9.67;5.70;;;;;;;19.55;77.03;99479.44;5027152;28;20225;-81
2022/05/05 11:28:40;;;;;;;7.10;5.30;;;;;;;20.29;71.92;99479.38;5071225;28;20188;-81
2022/05/05 11:31:20;;;;;;;8.27;4.70;;;;;;;20.00;71.47;99484.09;5089695;28;20670;-81
2022/05/05 11:33:52;;;;;;;9.70;5.10;;;;;;;19.63;76.38;99476.06;5067257;28;20196;-81
2022/05/05 11:36:21;;;;;;;7.00;4.63;;;;;;;20.13;73.41;99479.19;5060444;28;20230;-80
2022/05/05 11:38:49;;;;;;;7.17;4.83;;;;;;;20.47;71.55;99475.88;5070693;28;20207;-81
2022/05/05 11:41:20;;;;;;;7.47;4.47;;;;;;;20.03;70.67;99475.72;5065696;28;20198;-81
2022/05/05 11:46:36;;;;;;;5.87;4.27;;;;;;;19.78;76.15;99476.41;5069007;28;20210;-80
2022/05/05 11:49:05;;;;;;;7.93;4.50;;;;;;;19.59;76.71;99472.84;5069282;28;20204;-81
2022/05/05 11:51:37;;;;;;;10.60;5.07;;;;;;;19.65;73.27;99472.22;5067371;28;20224;-80
2022/05/05 11:54:08;;;;;;;7.80;4.47;;;;;;;19.44;72.88;99479.63;5073645;28;20192;-81
2022/05/05 11:56:45;;;;;;;7.87;4.37;;;;;;;19.77;70.99;99477.41;5033798;28;20686;-80
2022/05/05 12:02:08;;;;;;;7.70;4.50;;;;;;;18.65;77.34;99481.75;5091098;28;20192;-81
2022/05/05 12:04:41;;;;;;;6.70;3.87;;;;;;;19.09;78.45;99472.22;5086876;28;20202;-81
2022/05/05 12:07:19;;;;;;;9.27;4.03;;;;;;;19.12;78.33;99471.97;5092474;28;20188;-81
2022/05/05 12:09:51;;;;;;;8.63;4.20;;;;;;;19.12;76.31;99477.34;5088157;28;20203;-81
2022/05/05 12:12:21;;;;;;;6.77;4.17;;;;;;;19.42;75.91;99482.47;5091187;28;20249;-81
2022/05/05 12:14:54;;;;;;;7.43;4.10;;;;;;;19.32;73.95;99472.75;5094599;28;20191;-81
2022/05/05 12:17:27;;;;;;;6.23;4.17;;;;;;;19.84;71.78;99473.97;5090641;28;20187;-80
2022/05/05 12:19:56;;;;;;;5.13;3.73;;;;;;;19.73;74.82;99474.19;5095005;28;20202;-81
2022/05/05 12:22:29;;;;;;;7.43;3.73;;;;;;;19.87;75.32;99476.34;5094782;28;20314;-81